createdAt,value
2022-08-18T00:01:13.417Z,24.27
2022-08-18T00:03:56.172Z,20.35
2022-08-18T00:06:29.344Z,21.25
2022-08-18T00:08:59.447Z,20.63
2022-08-18T00:11:28.662Z,20.80
2022-08-18T00:14:11.577Z,20.15
2022-08-18T00:16:50.333Z,23.80
2022-08-18T00:19:20.410Z,21.17
2022-08-18T00:22:09.168Z,24.15
2022-08-18T00:24:48.609Z,24.25
2022-08-18T00:27:22.956Z,19.08
2022-08-18T00:29:52.379Z,17.20
2022-08-18T00:32:21.924Z,20.48
2022-08-18T00:34:51.861Z,20.45
2022-08-18T00:37:20.473Z,20.15
2022-08-18T00:39:49.017Z,21.30
2022-08-18T00:42:29.123Z,16.77
2022-08-18T00:45:00.230Z,20.15
2022-08-18T00:47:41.123Z,21.55
2022-08-18T00:50:14.970Z,23.65
2022-08-18T00:52:45.756Z,24.77
2022-08-18T00:55:14.623Z,19.25
2022-08-18T00:57:43.924Z,25.92
2022-08-18T01:00:14.517Z,18.38
2022-08-18T01:02:45.317Z,20.95
2022-08-18T01:05:18.165Z,20.80
2022-08-18T01:07:48.127Z,20.45
2022-08-18T01:10:17.676Z,19.23
2022-08-18T01:12:47.121Z,23.60
2022-08-18T01:15:28.873Z,23.23
2022-08-18T01:18:16.474Z,20.90
2022-08-18T01:21:07.557Z,22.50
2022-08-18T01:23:37.811Z,22.88
2022-08-18T01:26:05.452Z,25.52
2022-08-18T01:28:36.241Z,20.27
2022-08-18T01:31:06.347Z,23.05
2022-08-18T01:33:36.632Z,23.95
2022-08-18T01:36:08.629Z,23.10
2022-08-18T01:38:40.591Z,22.70
2022-08-18T01:41:26.645Z,22.20
2022-08-18T01:43:58.705Z,24.88
2022-08-18T01:46:28.045Z,23.02
2022-08-18T01:48:58.633Z,23.25
2022-08-18T01:51:36.373Z,21.48
2022-08-18T01:54:11.233Z,21.67
2022-08-18T01:56:40.843Z,21.77
2022-08-18T01:59:15.231Z,19.73
2022-08-18T02:01:48.375Z,21.95
2022-08-18T02:04:37.100Z,24.27
2022-08-18T02:07:07.126Z,23.83
2022-08-18T02:09:37.926Z,21.27
2022-08-18T02:12:07.389Z,24.42
2022-08-18T02:14:36.765Z,20.17
2022-08-18T02:17:07.765Z,23.83
2022-08-18T02:19:36.991Z,21.77
2022-08-18T02:22:06.084Z,21.13
2022-08-18T02:24:34.625Z,21.67
2022-08-18T02:27:04.561Z,24.55
2022-08-18T02:29:33.308Z,21.05
2022-08-18T02:32:01.822Z,21.05
2022-08-18T02:34:30.440Z,22.30
2022-08-18T02:37:00.775Z,21.63
2022-08-18T02:39:29.812Z,16.83
2022-08-18T02:41:58.685Z,19.48
2022-08-18T02:44:28.728Z,17.17
2022-08-18T02:46:57.291Z,18.75
2022-08-18T02:49:26.263Z,19.80
2022-08-18T02:51:54.835Z,18.42
2022-08-18T02:54:24.472Z,23.95
2022-08-18T02:56:53.732Z,18.85
2022-08-18T02:59:23.172Z,15.38
2022-08-18T03:01:54.398Z,20.40
2022-08-18T03:04:29.211Z,18.30
2022-08-18T03:07:00.334Z,14.48
2022-08-18T03:09:29.333Z,17.48
2022-08-18T03:11:58.338Z,20.65
2022-08-18T03:14:26.953Z,18.40
2022-08-18T03:16:57.235Z,18.42
2022-08-18T03:19:26.477Z,21.02
2022-08-18T03:21:58.038Z,18.77
2022-08-18T03:24:27.542Z,19.60
2022-08-18T03:26:56.982Z,15.75
2022-08-18T03:29:31.677Z,15.60
2022-08-18T03:32:02.815Z,19.25
2022-08-18T03:34:32.374Z,15.30
2022-08-18T03:37:01.281Z,15.27
2022-08-18T03:39:30.528Z,19.67
2022-08-18T03:42:01.666Z,15.63
2022-08-18T03:44:31.886Z,20.70
2022-08-18T03:47:03.154Z,16.55
2022-08-18T03:49:32.582Z,20.08
2022-08-18T03:52:01.472Z,20.17
2022-08-18T03:54:32.319Z,20.42
2022-08-18T03:57:01.352Z,23.75
2022-08-18T03:59:32.039Z,19.38
2022-08-18T04:02:04.514Z,17.65
2022-08-18T04:04:33.038Z,18.25
2022-08-18T04:07:05.604Z,15.85
2022-08-18T04:09:35.043Z,18.33
2022-08-18T04:12:05.865Z,16.58
2022-08-18T04:14:35.423Z,20.17
2022-08-18T04:17:05.325Z,23.33
2022-08-18T04:19:34.879Z,20.05
2022-08-18T04:22:04.770Z,25.17
2022-08-18T04:24:34.450Z,22.38
2022-08-18T04:27:06.031Z,18.20
2022-08-18T04:29:34.523Z,24.65
2022-08-18T04:32:04.968Z,23.40
2022-08-18T04:34:35.046Z,19.67
2022-08-18T04:37:03.723Z,19.73
2022-08-18T04:39:33.034Z,22.23
2022-08-18T04:42:03.689Z,20.27
2022-08-18T04:44:32.186Z,23.67
2022-08-18T04:47:02.689Z,23.08
2022-08-18T04:49:32.142Z,21.92
2022-08-18T04:52:37.117Z,24.52
2022-08-18T04:55:08.736Z,24.42
2022-08-18T04:57:37.437Z,25.00
2022-08-18T05:00:07.338Z,24.73
2022-08-18T05:02:35.967Z,23.80
2022-08-18T05:05:04.675Z,24.17
2022-08-18T05:07:34.598Z,22.13
2022-08-18T05:10:03.199Z,25.67
2022-08-18T05:12:31.693Z,23.95
2022-08-18T05:15:00.269Z,24.00
2022-08-18T05:17:30.634Z,28.35
2022-08-18T05:20:01.489Z,27.48
2022-08-18T05:22:31.339Z,25.20
2022-08-18T05:25:02.176Z,21.88
2022-08-18T05:27:35.297Z,25.88
2022-08-18T05:30:04.276Z,26.75
2022-08-18T05:32:47.935Z,20.40
2022-08-18T05:35:23.424Z,23.58
2022-08-18T05:38:08.506Z,22.27
2022-08-18T05:40:38.600Z,19.00
2022-08-18T05:43:08.430Z,24.88
2022-08-18T05:45:37.115Z,23.15
2022-08-18T05:48:05.844Z,18.33
2022-08-18T05:50:36.439Z,18.83
2022-08-18T05:53:13.602Z,19.83
2022-08-18T05:56:06.031Z,20.25
2022-08-18T05:58:37.955Z,17.40
2022-08-18T06:01:08.727Z,22.10
2022-08-18T06:03:46.350Z,20.83
2022-08-18T06:06:17.690Z,19.75
2022-08-18T06:08:48.661Z,20.95
2022-08-18T06:11:22.571Z,21.20
2022-08-18T06:13:54.321Z,18.58
2022-08-18T06:16:34.699Z,16.83
2022-08-18T06:19:05.784Z,15.75
2022-08-18T06:21:39.533Z,19.13
2022-08-18T06:24:10.849Z,17.58
2022-08-18T06:26:43.019Z,16.75
2022-08-18T06:29:23.063Z,17.77
2022-08-18T06:31:56.468Z,15.25
2022-08-18T06:34:27.936Z,19.17
2022-08-18T06:36:59.181Z,14.88
2022-08-18T06:39:30.262Z,16.25
2022-08-18T06:42:00.316Z,15.07
2022-08-18T06:44:32.551Z,18.90
2022-08-18T06:47:04.711Z,14.98
2022-08-18T06:49:39.795Z,14.27
2022-08-18T06:52:25.520Z,13.75
2022-08-18T06:54:55.391Z,15.25
2022-08-18T06:57:28.004Z,16.88
2022-08-18T06:59:57.858Z,19.00
2022-08-18T07:02:28.720Z,11.68
2022-08-18T07:05:07.063Z,19.05
2022-08-18T07:07:39.662Z,12.93
2022-08-18T07:10:30.227Z,14.77
2022-08-18T07:13:09.983Z,15.43
2022-08-18T07:15:38.501Z,16.73
2022-08-18T07:18:07.716Z,17.08
2022-08-18T07:20:43.416Z,13.75
2022-08-18T07:23:21.493Z,13.43
2022-08-18T07:25:52.323Z,14.02
2022-08-18T07:28:30.369Z,14.38
2022-08-18T07:31:16.887Z,11.27
2022-08-18T07:33:48.511Z,13.77
2022-08-18T07:36:17.632Z,16.05
2022-08-18T07:38:48.685Z,13.27
2022-08-18T07:41:20.532Z,20.52
2022-08-18T07:43:55.959Z,15.38
2022-08-18T07:46:29.570Z,15.30
2022-08-18T07:48:59.509Z,14.35
2022-08-18T07:51:35.179Z,14.10
2022-08-18T07:54:31.095Z,12.35
2022-08-18T07:57:04.175Z,18.05
2022-08-18T07:59:38.063Z,13.15
2022-08-18T08:02:18.326Z,12.82
2022-08-18T08:04:51.035Z,13.50
2022-08-18T08:07:25.133Z,15.40
2022-08-18T08:09:59.829Z,21.05
2022-08-18T08:12:37.177Z,19.90
2022-08-18T08:15:11.761Z,13.90
2022-08-18T08:17:45.016Z,14.20
2022-08-18T08:20:19.592Z,13.48
2022-08-18T08:22:55.247Z,16.67
2022-08-18T08:25:45.940Z,11.63
2022-08-18T08:28:20.512Z,19.75
2022-08-18T08:30:55.807Z,15.52
2022-08-18T08:33:26.916Z,10.20
2022-08-18T08:36:00.421Z,12.73
2022-08-18T08:38:42.795Z,22.05
2022-08-18T08:41:15.214Z,10.55
2022-08-18T08:43:46.424Z,15.30
2022-08-18T08:46:19.077Z,15.65
2022-08-18T08:48:50.414Z,17.35
2022-08-18T08:51:31.374Z,13.63
2022-08-18T08:54:05.619Z,27.77
2022-08-18T08:56:37.009Z,20.55
2022-08-18T09:11:56.766Z,25.10
2022-08-18T09:14:39.921Z,26.73
2022-08-18T09:17:18.380Z,33.92
2022-08-18T09:19:54.754Z,34.45
2022-08-18T09:22:32.319Z,39.17
2022-08-18T09:25:00.936Z,41.35
2022-08-18T09:28:00.080Z,44.30
2022-08-18T09:30:40.610Z,49.72
2022-08-18T09:33:29.593Z,52.10
2022-08-18T09:36:06.387Z,38.83
2022-08-18T09:38:58.597Z,33.95
2022-08-18T09:41:35.575Z,31.38
2022-08-18T09:44:17.841Z,32.20
2022-08-18T09:46:57.606Z,26.60
2022-08-18T09:49:56.064Z,26.30
2022-08-18T09:52:58.977Z,24.75
2022-08-18T09:55:59.238Z,25.33
2022-08-18T09:58:48.483Z,30.25
2022-08-18T10:01:36.662Z,39.05
2022-08-18T10:04:35.340Z,41.95
2022-08-18T10:07:18.730Z,38.53
2022-08-18T10:09:56.384Z,38.92
2022-08-18T10:12:36.214Z,35.30
2022-08-18T10:15:27.027Z,35.45
2022-08-18T10:18:19.020Z,32.05
2022-08-18T10:20:55.717Z,30.45
2022-08-18T10:27:00.325Z,34.30
2022-08-18T10:29:49.165Z,38.88
2022-08-18T10:32:36.120Z,35.90
2022-08-18T10:35:05.265Z,23.67
2022-08-18T10:37:38.228Z,17.13
2022-08-18T10:40:14.878Z,15.43
2022-08-18T10:42:53.437Z,16.42
2022-08-18T10:45:25.369Z,16.30
2022-08-18T10:48:00.576Z,18.75
2022-08-18T10:50:30.544Z,18.40
2022-08-18T10:53:38.557Z,15.50
2022-08-18T10:56:01.935Z,15.32
2022-08-18T10:58:45.401Z,19.13
2022-08-18T11:01:19.359Z,19.17
2022-08-18T11:04:08.828Z,15.55
2022-08-18T11:06:46.332Z,17.65
2022-08-18T11:09:24.680Z,17.85
2022-08-18T11:11:59.606Z,20.48
2022-08-18T11:14:59.673Z,71.00
2022-08-18T11:17:35.712Z,115.32
2022-08-18T11:20:10.735Z,61.00
2022-08-18T11:22:39.687Z,52.13
2022-08-18T11:25:21.229Z,43.70
2022-08-18T11:27:51.172Z,45.83
2022-08-18T11:33:15.681Z,33.72
2022-08-18T11:35:54.062Z,22.40
2022-08-18T11:41:19.500Z,19.40
2022-08-18T11:43:50.590Z,25.27
2022-08-18T11:46:29.711Z,23.83
2022-08-18T11:49:00.810Z,16.08
2022-08-18T11:51:32.655Z,23.48
2022-08-18T11:54:03.143Z,20.42
2022-08-18T11:56:37.707Z,25.40
2022-08-18T11:59:09.249Z,19.58
2022-08-18T12:01:43.391Z,18.67
2022-08-18T12:04:16.739Z,16.67
2022-08-18T12:07:01.788Z,24.48
2022-08-18T12:10:17.008Z,23.55
2022-08-18T12:12:35.811Z,32.40
2022-08-18T12:17:55.744Z,21.55
2022-08-18T12:20:24.921Z,27.88
2022-08-18T12:22:54.376Z,44.40
2022-08-18T12:25:24.682Z,32.50
2022-08-18T12:27:55.501Z,30.60
2022-08-18T12:30:24.070Z,22.08
2022-08-18T12:32:56.394Z,26.00
2022-08-18T12:35:35.148Z,19.02
2022-08-18T12:38:13.209Z,21.08
2022-08-18T12:40:43.025Z,14.82
2022-08-18T12:43:13.010Z,17.02
2022-08-18T12:45:43.089Z,20.23
2022-08-18T12:48:12.007Z,21.58
2022-08-18T12:53:38.530Z,16.95
2022-08-18T12:56:21.712Z,19.65
2022-08-18T12:58:52.038Z,17.40
2022-08-18T13:01:20.703Z,15.77
2022-08-18T13:04:11.186Z,18.42
2022-08-18T13:06:54.215Z,16.42
2022-08-18T13:09:34.107Z,25.02
2022-08-18T13:12:14.924Z,30.52
2022-08-18T13:14:50.927Z,23.70
2022-08-18T13:17:32.069Z,23.67
2022-08-18T13:20:02.008Z,36.67
2022-08-18T13:22:32.649Z,26.85
2022-08-18T13:25:04.021Z,21.95
2022-08-18T13:27:36.110Z,31.50
2022-08-18T13:30:30.328Z,23.58
2022-08-18T13:32:59.347Z,23.08
2022-08-18T13:35:30.181Z,21.92
2022-08-18T13:38:14.308Z,24.33
2022-08-18T13:40:49.492Z,29.17
2022-08-18T13:43:19.026Z,23.13
2022-08-18T13:45:53.009Z,23.63
2022-08-18T13:48:24.259Z,24.88
2022-08-18T13:50:55.676Z,25.92
2022-08-18T13:53:26.427Z,15.95
2022-08-18T13:55:58.673Z,22.65
2022-08-18T13:58:27.903Z,14.82
2022-08-18T14:01:42.374Z,16.00
2022-08-18T14:03:50.437Z,17.33
2022-08-18T14:06:22.671Z,11.75
2022-08-18T14:08:52.824Z,12.93
2022-08-18T14:11:22.394Z,14.38
2022-08-18T14:13:54.359Z,13.80
2022-08-18T14:16:26.830Z,16.50
2022-08-18T14:19:17.629Z,9.10
2022-08-18T14:22:05.580Z,11.40
2022-08-18T14:24:52.631Z,17.00
2022-08-18T14:27:21.500Z,16.83
2022-08-18T14:29:50.940Z,13.18
2022-08-18T14:32:29.494Z,13.52
2022-08-18T14:35:00.777Z,13.15
2022-08-18T14:37:41.720Z,10.00
2022-08-18T14:40:12.380Z,10.43
2022-08-18T14:42:54.964Z,10.95
2022-08-18T14:45:31.418Z,11.25
2022-08-18T14:48:07.289Z,12.73
2022-08-18T14:50:37.083Z,11.05
2022-08-18T14:53:06.652Z,13.50
2022-08-18T14:55:35.924Z,12.52
2022-08-18T14:58:07.303Z,11.05
2022-08-18T15:00:49.900Z,10.73
2022-08-18T15:03:28.394Z,11.73
2022-08-18T15:06:04.608Z,14.98
2022-08-18T15:08:36.607Z,11.88
2022-08-18T15:11:11.338Z,10.52
2022-08-18T15:13:40.573Z,12.40
2022-08-18T15:16:13.555Z,17.92
2022-08-18T15:18:43.904Z,10.32
2022-08-18T15:21:38.786Z,12.18
2022-08-18T15:24:25.348Z,12.38
2022-08-18T15:26:57.528Z,13.50
2022-08-18T15:29:31.604Z,11.52
2022-08-18T15:32:06.182Z,11.27
2022-08-18T15:34:47.182Z,9.15
2022-08-18T15:37:22.217Z,9.10
2022-08-18T15:40:00.826Z,12.80
2022-08-18T15:42:31.199Z,13.07
2022-08-18T15:45:11.655Z,9.65
2022-08-18T15:47:42.890Z,7.93
2022-08-18T15:50:22.426Z,12.18
2022-08-18T15:52:56.748Z,7.63
2022-08-18T15:55:26.047Z,11.30
2022-08-18T15:57:57.086Z,11.65
2022-08-18T16:00:27.700Z,7.45
2022-08-18T16:02:58.525Z,16.65
2022-08-18T16:05:32.119Z,6.35
2022-08-18T16:08:01.245Z,11.60
2022-08-18T16:10:32.413Z,8.15
2022-08-18T16:13:01.970Z,12.88
2022-08-18T16:15:34.054Z,11.70
2022-08-18T16:18:05.744Z,13.07
2022-08-18T16:20:36.025Z,9.80
2022-08-18T16:23:05.476Z,15.18
2022-08-18T16:25:34.009Z,7.80
2022-08-18T16:28:03.046Z,7.38
2022-08-18T16:30:32.698Z,11.63
2022-08-18T16:33:03.708Z,14.05
2022-08-18T16:35:37.361Z,12.00
2022-08-18T16:38:06.797Z,12.63
2022-08-18T16:40:35.341Z,11.48
2022-08-18T16:43:07.293Z,12.90
2022-08-18T16:45:36.184Z,6.28
2022-08-18T16:48:06.486Z,9.90
2022-08-18T16:50:37.574Z,11.38
2022-08-18T16:53:07.598Z,9.35
2022-08-18T16:55:37.718Z,9.75
2022-08-18T16:58:24.275Z,8.05
2022-08-18T17:01:24.718Z,11.35
2022-08-18T17:04:13.529Z,9.85
2022-08-18T17:06:51.090Z,14.23
2022-08-18T17:09:19.965Z,7.70
2022-08-18T17:11:52.922Z,10.43
2022-08-18T17:14:22.550Z,10.88
2022-08-18T17:16:55.101Z,7.95
2022-08-18T17:19:24.345Z,8.80
2022-08-18T17:21:54.342Z,11.23
2022-08-18T17:24:31.943Z,9.32
2022-08-18T17:27:25.594Z,10.25
2022-08-18T17:29:58.630Z,11.90
2022-08-18T17:32:28.344Z,7.63
2022-08-18T17:35:01.060Z,9.85
2022-08-18T17:37:32.019Z,8.02
2022-08-18T17:40:05.738Z,9.93
2022-08-18T17:42:35.856Z,4.15
2022-08-18T17:45:07.410Z,5.68
2022-08-18T17:47:39.971Z,12.45
2022-08-18T17:50:28.745Z,6.57
2022-08-18T17:53:06.115Z,10.50
2022-08-18T17:55:39.247Z,7.10
2022-08-18T17:58:14.483Z,10.40
2022-08-18T18:00:43.074Z,13.02
2022-08-18T18:03:13.401Z,10.75
2022-08-18T18:05:43.939Z,10.45
2022-08-18T18:08:13.878Z,10.05
2022-08-18T18:11:03.947Z,9.10
2022-08-18T18:13:34.768Z,7.78
2022-08-18T18:16:20.357Z,9.53
2022-08-18T18:19:00.878Z,9.40
2022-08-18T18:22:00.503Z,11.10
2022-08-18T18:24:34.540Z,12.40
2022-08-18T18:27:03.705Z,9.18
2022-08-18T18:29:37.381Z,9.85
2022-08-18T18:32:07.604Z,8.68
2022-08-18T18:34:39.473Z,9.02
2022-08-18T18:37:24.606Z,11.48
2022-08-18T18:39:58.467Z,10.98
2022-08-18T18:42:29.434Z,8.68
2022-08-18T18:44:59.144Z,7.35
2022-08-18T18:47:50.679Z,6.82
2022-08-18T18:50:25.857Z,8.45
2022-08-18T18:52:59.805Z,9.77
2022-08-18T18:55:31.480Z,10.02
2022-08-18T18:58:08.024Z,9.38
2022-08-18T19:00:40.643Z,10.07
2022-08-18T19:03:11.680Z,10.15
2022-08-18T19:05:43.427Z,10.70
2022-08-18T19:08:19.580Z,10.93
2022-08-18T19:10:55.560Z,11.75
2022-08-18T19:13:32.753Z,8.02
2022-08-18T19:16:09.663Z,12.20
2022-08-18T19:18:44.383Z,10.30
2022-08-18T19:22:05.827Z,11.98
2022-08-18T19:24:18.829Z,8.38
2022-08-18T19:26:52.787Z,13.38
2022-08-18T19:29:24.172Z,11.82
2022-08-18T19:31:57.480Z,10.32
2022-08-18T19:34:30.172Z,16.88
2022-08-18T19:37:03.374Z,12.25
2022-08-18T19:39:39.445Z,12.30
2022-08-18T19:42:12.407Z,8.25
2022-08-18T19:45:00.363Z,11.77
2022-08-18T19:47:36.680Z,10.55
2022-08-18T19:50:09.142Z,10.25
2022-08-18T19:52:47.041Z,11.55
2022-08-18T19:55:19.438Z,13.32
2022-08-18T19:58:01.503Z,9.80
2022-08-18T20:00:35.500Z,12.18
2022-08-18T20:03:15.689Z,14.32
2022-08-18T20:05:47.963Z,10.98
2022-08-18T20:08:34.112Z,8.27
2022-08-18T20:11:13.019Z,9.88
2022-08-18T20:13:44.682Z,11.70
2022-08-18T20:16:43.590Z,10.80
2022-08-18T20:19:46.045Z,15.52
2022-08-18T20:22:29.885Z,11.68
2022-08-18T20:25:05.818Z,15.82
2022-08-18T20:27:36.831Z,16.13
2022-08-18T20:30:20.245Z,11.85
2022-08-18T20:33:07.031Z,11.45
2022-08-18T20:35:40.856Z,10.90
2022-08-18T20:38:15.562Z,10.82
2022-08-18T20:40:45.312Z,8.00
2022-08-18T20:43:31.092Z,12.40
2022-08-18T20:46:12.417Z,10.13
2022-08-18T20:48:49.428Z,9.15
2022-08-18T20:51:22.199Z,14.05
2022-08-18T20:53:55.899Z,10.75
2022-08-18T20:56:31.359Z,13.68
2022-08-18T20:59:08.672Z,11.45
2022-08-18T21:01:39.004Z,12.05
2022-08-18T21:04:09.332Z,12.43
2022-08-18T21:06:39.625Z,9.93
2022-08-18T21:09:08.442Z,13.82
2022-08-18T21:11:40.285Z,10.80
2022-08-18T21:14:09.085Z,12.45
2022-08-18T21:16:39.608Z,15.02
2022-08-18T21:19:13.943Z,9.07
2022-08-18T21:21:46.322Z,9.45
2022-08-18T21:24:23.863Z,9.55
2022-08-18T21:26:56.350Z,6.63
2022-08-18T21:29:25.060Z,10.02
2022-08-18T21:31:54.980Z,10.52
2022-08-18T21:34:33.612Z,11.23
2022-08-18T21:37:04.263Z,12.88
2022-08-18T21:39:32.770Z,7.75
2022-08-18T21:42:01.544Z,9.52
2022-08-18T21:44:35.756Z,9.77
2022-08-18T21:47:06.586Z,11.70
2022-08-18T21:49:37.734Z,12.10
2022-08-18T21:52:06.322Z,7.32
2022-08-18T21:54:36.270Z,7.85
2022-08-18T21:57:25.186Z,10.05
2022-08-18T22:00:12.914Z,8.18
2022-08-18T22:02:41.502Z,10.05
2022-08-18T22:05:12.891Z,10.85
2022-08-18T22:07:47.920Z,13.25
2022-08-18T22:10:45.444Z,14.57
2022-08-18T22:13:36.658Z,9.35
2022-08-18T22:16:20.272Z,10.70
2022-08-18T22:18:48.759Z,12.73
2022-08-18T22:24:21.596Z,10.93
2022-08-18T22:26:52.586Z,9.02
2022-08-18T22:29:26.671Z,10.93
2022-08-18T22:31:55.853Z,9.02
2022-08-18T22:34:27.911Z,13.13
2022-08-18T22:36:59.871Z,10.50
2022-08-18T22:39:30.836Z,14.00
2022-08-18T22:42:00.277Z,9.13
2022-08-18T22:44:29.384Z,13.07
2022-08-18T22:46:57.900Z,9.95
2022-08-18T22:49:26.358Z,11.13
2022-08-18T22:51:56.228Z,11.55
2022-08-18T22:54:25.430Z,12.65
2022-08-18T22:56:57.668Z,9.00
2022-08-18T22:59:27.069Z,9.23
2022-08-18T23:01:56.090Z,8.50
2022-08-18T23:04:25.558Z,7.88
2022-08-18T23:06:54.194Z,12.95
2022-08-18T23:09:23.871Z,12.30
2022-08-18T23:11:53.101Z,11.32
2022-08-18T23:14:23.467Z,8.45
2022-08-18T23:16:52.372Z,7.25
2022-08-18T23:19:22.014Z,9.85
2022-08-18T23:21:51.251Z,8.02
2022-08-18T23:24:20.236Z,10.82
2022-08-18T23:26:49.887Z,11.43
2022-08-18T23:29:18.863Z,13.50
2022-08-18T23:31:49.754Z,10.15
2022-08-18T23:34:19.363Z,8.77
2022-08-18T23:36:49.058Z,9.27
2022-08-18T23:39:17.539Z,8.13
2022-08-18T23:41:46.023Z,10.85
2022-08-18T23:44:15.036Z,8.38
2022-08-18T23:46:44.607Z,12.82
2022-08-18T23:49:15.065Z,11.38
2022-08-18T23:51:44.626Z,9.68
2022-08-18T23:54:14.271Z,6.47
2022-08-18T23:56:42.944Z,12.90
2022-08-18T23:59:13.093Z,9.57
